Aérodrome :
LOGIN :

S'inscrire | Disclaimer

   EN    FR    IT 

 










Légende :    VFR   VFR Marginal   IFR   IFR Intensif   IFR Très Intensif
Visi : 
Plafond : 
>= 8 km
>= 3000ft
5 à 8 km
1000 à 3000 ft
1500m à 5 km
500 à 1000 ft
800 à 1500m
200 à 500 ft
< 800m
< 200 ft
Symboles :   Orages  Brouillard  Fortes neiges  Fortes précipitations  Vent > 20 kt
SIGMETs :   Divers  Orages  Givrage  Turbulence  Onde Orograph.  Cendres Volcan.






- Altitude de l'aérodrome : 140 ft


ESTL - Ljungbyhed

DERNIER METAR :
  • 180220Z AUTO 21007KT 6000 DZ BKN004/// OVC006/// 06/06 Q1010

METARs EXPIRÉS :
  • 180150Z AUTO 21007KT 6000 DZ FEW005/// SCT007/// BKN019/// 06/06 Q1010 REDZ
  • 180120Z AUTO 20006KT 4800 DZ SCT005/// BKN007/// BKN042/// 06/06 Q1010
  • 180050Z AUTO 21008KT 5000 -RA FEW006/// SCT007/// BKN033/// 06/06 Q1010 REDZ
  • 180020Z AUTO 21009KT 6000 DZ BKN008/// BKN024/// 05/05 Q1010 REDZ
  • 172350Z AUTO 19009KT 7000 DZ FEW010/// OVC016/// 05/05 Q1009

Prévision TAF périmée.



MET'MAP, la Météo Aéronautique d'un coup d'oeil ! - Copyright ORBIFLY Décembre 2007 - Disclaimer

ORBIFLY MET'MAP TEAM :

Programmation & Développement : Alexandra Zaïnal
Sur une idée originale de : Baudouin d'Aumeries
Assistance à la programmation : Marc-Olivier Méhu
Soutien technique & logistique : Manuel Goepfert

Contact : metmap@orbifly.com




SOURCES & CREDITS :

   NOAA